Portada
METAR-TAF:

METAR-TAF

Aeropuertos :

Wonderboom Airport

Pretoria, Sudáfrica

latitud: 25-39S, longitud: 028-13E, altitud: 1248 m

Observación

El informe se hizo hace 1 hora y 15 minutos, a las 07:00 UTC
Viento 9 kt del este-noreste
Temperatura 17°C
Humedad 77%
Presión 1027 hPa

METAR: FAWB 160700Z AUTO 06009KT //// // ////// 17/13 Q1027

Hora: 10:15 (08:15 UTC)

Pronóstico

El informe se hizo hace 2 horas y 15 minutos, a las 06:00 UTC
Pronóstico válido del 16 a las 07 UTC al 16 a las 18 UTC
Viento 9 kt del norte-noreste
Visibilidad 10 km o más
Cielo nuboso a una altura de 2500 ft
Probabilidad 30% :
Temporalmente
del 16 a las 07 UTC al 16 a las 08 UTC
Cielo nuboso a una altura de 1400 ft
A partir de las 16 a las 1200 UTC
Viento 8 kt del norte
Visibilidad 10 km o más
Nubes dispersas a una altura de 3000 ft

TAF: FAWB 160600Z 1607/1618 02009KT 9999 BKN025 TX22/1613Z TN16/1607Z PROB30 TEMPO 1607/1608 BKN014 FM161200 36008KT 9999 SCT030

Observaciones y pronósticos meteorológicos de más de 4000 aeropuertos (mensajes METAR y TAF).

Los puntos amarillos y rojos representan las estaciones disponibles.

Ponga el ratón en el punto deseado para ver el nombre de la estación.

Haga clic para ver las observaciones y los pronósticos meteorológicos.

Para cambiar el mapa : haga clic en los botones verdes con una cruz de color negro para hacer un zoom, en el botón verde con un guión para alejar o en las flechas verdes para mapas adyacentes.


METAR-TAF: